Walhalla, North Dakota
Current Conditions -  °F | °C
As of 8:15 PM on Saturday 22 Nov 2014 (Local Time) from K2C8 Reporting Station
Scattered Clouds Scattered Clouds  
Wind Chill: 32°   Ceiling: Unl
Heat Index: 32°   Visibility: 10mi
Dew Point: 28°   Wind: 3mph
Humidity: 87%   Direction: 180°S
Pressure: 29.37"   Gusts: NA
Location:  48.92°N, 97.92°W
Report Text: K2C8 230215Z AUTO 18003KT 10SM SCT110 00/M02 A2937 RMK AO2
Loading
Personal Weather Stations






























Interactive Weather Map New forecast layout! Learn more

10-Day Weather Forecast

Advertisements
Track Severe Weather on mobile